Time;durP1;ratioP1;P1;durP2;ratioP2;P2;SDS_P1;SDS_P2;PMS_P1;PMS_P2;Temp;Humidity;BMP_temperature;BMP_pressure;BME280_temperature;BME280_humidity;BME280_pressure;Samples;Min_cycle;Max_cycle;Signal;HPM_P1;HPM_P2
2023/04/21 00:01:28;;;;;;;;;9.00;8.00;;;;;6.40;97.09;98594.03;4833873;28;102505;-72
2023/04/21 00:04:08;;;;;;;;;8.75;7.50;;;;;6.34;97.09;98592.91;4833680;28;102631;-71
2023/04/21 00:07:00;;;;;;;;;6.25;4.75;;;;;6.27;97.95;98584.69;4839708;28;108077;-72
2023/04/21 00:09:57;;;;;;;;;3.75;3.75;;;;;6.18;98.44;98579.53;4843331;28;108772;-72
2023/04/21 00:12:47;;;;;;;;;3.00;3.00;;;;;6.18;98.86;98585.72;4833684;28;102408;-73
2023/04/21 00:15:22;;;;;;;;;3.25;3.25;;;;;6.11;99.41;98576.72;4839785;28;102609;-73
2023/04/21 00:17:49;;;;;;;;;6.25;4.00;;;;;6.08;99.51;98581.59;4842512;28;102341;-72
2023/04/21 00:20:16;;;;;;;;;7.25;6.00;;;;;6.06;99.60;98580.91;4844450;28;104114;-72
2023/04/21 00:22:43;;;;;;;;;3.00;3.00;;;;;6.04;99.89;98588.28;4842009;28;102583;-71
2023/04/21 00:25:10;;;;;;;;;8.00;7.25;;;;;5.97;100.00;98580.13;4841792;28;103413;-72
2023/04/21 00:27:37;;;;;;;;;7.25;7.25;;;;;5.86;100.00;98567.00;4847647;28;102341;-71
2023/04/21 00:30:05;;;;;;;;;12.00;12.00;;;;;5.78;100.00;98580.47;4846048;28;108915;-71
2023/04/21 00:32:31;;;;;;;;;24.00;20.75;;;;;5.63;100.00;98577.63;4836715;28;102297;-71
2023/04/21 00:34:58;;;;;;;;;28.25;25.50;;;;;5.51;100.00;98580.84;4836725;28;102981;-71
2023/04/21 00:37:25;;;;;;;;;26.25;25.00;;;;;5.11;100.00;98518.22;4846194;28;102305;-71
2023/04/21 00:39:52;;;;;;;;;35.75;27.50;;;;;5.43;100.00;98576.34;4837458;28;104022;-71
2023/04/21 00:42:19;;;;;;;;;26.50;23.50;;;;;5.47;100.00;98579.50;4843530;28;103055;-70
2023/04/21 00:44:46;;;;;;;;;29.00;24.25;;;;;5.41;100.00;98578.34;4838635;28;102391;-71
2023/04/21 00:47:13;;;;;;;;;17.50;13.75;;;;;5.46;100.00;98585.88;4849897;28;102278;-72
2023/04/21 00:49:41;;;;;;;;;18.50;16.50;;;;;5.50;100.00;98577.31;4846767;28;104121;-72
2023/04/21 00:52:08;;;;;;;;;15.75;14.00;;;;;5.53;100.00;98571.63;4841601;28;102849;-72
2023/04/21 00:54:35;;;;;;;;;14.75;12.50;;;;;5.51;100.00;98570.94;4842714;28;101979;-72
2023/04/21 00:57:03;;;;;;;;;12.50;10.00;;;;;5.55;100.00;98568.75;4848516;28;102049;-72
2023/04/21 00:59:30;;;;;;;;;12.00;12.00;;;;;5.59;100.00;98578.13;4848188;28;104123;-72
2023/04/21 01:01:58;;;;;;;;;6.75;6.75;;;;;5.58;100.00;98574.66;4832930;28;101885;-72
2023/04/21 01:04:39;;;;;;;;;14.00;13.00;;;;;5.57;100.00;98590.91;4844827;28;102168;-72
2023/04/21 01:07:22;;;;;;;;;14.75;14.00;;;;;5.48;100.00;98586.56;4842766;28;102596;-72
2023/04/21 01:10:08;;;;;;;;;14.00;11.25;;;;;5.48;100.00;98584.72;4840334;28;103591;-72
2023/04/21 01:12:50;;;;;;;;;17.50;13.25;;;;;5.47;100.00;98577.66;4842107;28;102175;-72
2023/04/21 01:15:35;;;;;;;;;8.00;8.00;;;;;5.45;100.00;98578.84;4843984;28;102132;-72
2023/04/21 01:18:13;;;;;;;;;8.75;8.75;;;;;5.43;100.00;98578.19;4842131;28;102200;-72
2023/04/21 01:20:40;;;;;;;;;9.25;7.25;;;;;5.41;100.00;98570.28;4846857;28;103932;-72
2023/04/21 01:23:07;;;;;;;;;5.00;3.00;;;;;5.43;100.00;98567.44;4844872;28;102353;-72
2023/04/21 01:25:34;;;;;;;;;9.00;8.00;;;;;5.43;100.00;98575.50;4845472;28;106079;-72
2023/04/21 01:28:02;;;;;;;;;8.50;7.50;;;;;5.42;100.00;98574.66;4847756;28;102417;-72
2023/04/21 01:30:29;;;;;;;;;18.00;12.50;;;;;5.39;100.00;98569.63;4845170;28;104053;-72
2023/04/21 01:32:57;;;;;;;;;11.50;11.50;;;;;5.47;100.00;98576.81;4843999;28;102673;-72
2023/04/21 01:35:24;;;;;;;;;9.25;8.25;;;;;5.49;100.00;98569.47;4838640;28;102290;-72
2023/04/21 01:37:51;;;;;;;;;6.00;4.00;;;;;5.55;100.00;98579.50;4848873;28;103342;-72
2023/04/21 01:40:18;;;;;;;;;6.00;6.00;;;;;5.57;100.00;98582.84;4843989;28;104167;-72
2023/04/21 01:42:45;;;;;;;;;8.00;7.50;;;;;5.61;100.00;98574.28;4845011;28;102067;-72
2023/04/21 01:45:12;;;;;;;;;8.75;7.50;;;;;5.67;100.00;98578.97;4839201;28;102286;-72
2023/04/21 01:47:39;;;;;;;;;3.75;3.75;;;;;5.72;100.00;98575.75;4848833;28;102934;-72
2023/04/21 01:50:07;;;;;;;;;5.50;4.00;;;;;5.75;100.00;98568.25;4825717;28;108994;-72
2023/04/21 01:52:34;;;;;;;;;3.00;3.00;;;;;5.78;100.00;98573.25;4844792;28;102109;-72
2023/04/21 01:55:01;;;;;;;;;12.75;10.00;;;;;5.73;100.00;98577.44;4845990;28;102967;-72
2023/04/21 01:57:29;;;;;;;;;14.00;14.00;;;;;5.72;100.00;98570.41;4843611;28;102087;-72
2023/04/21 01:59:56;;;;;;;;;11.25;10.25;;;;;5.74;100.00;98571.09;4845264;28;104028;-70
2023/04/21 02:02:23;;;;;;;;;13.75;9.75;;;;;5.71;100.00;98566.06;4846025;28;102524;-70
2023/04/21 02:04:50;;;;;;;;;14.25;13.00;;;;;5.73;100.00;98569.41;4837401;28;102493;-71
2023/04/21 02:07:17;;;;;;;;;19.50;18.75;;;;;5.71;100.00;98574.13;4838798;28;102220;-71
2023/04/21 02:09:45;;;;;;;;;23.75;18.00;;;;;5.67;100.00;98568.22;4844972;28;104228;-71
2023/04/21 02:12:11;;;;;;;;;16.25;12.50;;;;;5.68;100.00;98569.06;4839583;28;102471;-71
2023/04/21 02:14:38;;;;;;;;;14.75;13.75;;;;;5.66;100.00;98571.09;4845289;28;102145;-71
2023/04/21 02:17:05;;;;;;;;;14.50;12.00;;;;;5.66;100.00;98576.47;4843687;28;102782;-71
2023/04/21 02:19:32;;;;;;;;;12.50;10.50;;;;;5.62;100.00;98572.47;4844611;28;103968;-71
2023/04/21 02:21:59;;;;;;;;;14.25;14.00;;;;;5.54;100.00;98575.16;4845597;28;102134;-71
2023/04/21 02:24:26;;;;;;;;;15.25;13.00;;;;;5.50;100.00;98579.16;4845321;28;102034;-72
2023/04/21 02:26:53;;;;;;;;;12.25;10.50;;;;;5.43;100.00;98576.34;4839093;28;102064;-71
2023/04/21 02:29:20;;;;;;;;;16.00;14.00;;;;;5.27;100.00;98574.50;4843821;28;104118;-71
2023/04/21 02:31:47;;;;;;;;;23.50;21.75;;;;;5.14;100.00;98576.84;4849442;28;102221;-72
2023/04/21 02:34:31;;;;;;;;;14.25;13.00;;;;;5.15;100.00;98573.16;4838253;28;102521;-72
2023/04/21 02:36:58;;;;;;;;;11.00;9.50;;;;;5.07;100.00;98575.84;4844794;28;102375;-72
2023/04/21 02:39:25;;;;;;;;;11.75;11.50;;;;;5.10;100.00;98586.22;4844679;28;104120;-72
2023/04/21 02:41:52;;;;;;;;;11.25;9.75;;;;;5.00;100.00;98580.19;4847899;28;102046;-71
2023/04/21 02:44:19;;;;;;;;;21.25;16.50;;;;;4.85;100.00;98573.81;4846852;28;102494;-71
2023/04/21 02:46:46;;;;;;;;;26.00;21.25;;;;;4.74;100.00;98569.59;4812689;28;102092;-72
2023/04/21 02:49:13;;;;;;;;;36.50;33.75;;;;;4.61;100.00;98577.28;4840973;28;104139;-71
2023/04/21 02:51:40;;;;;;;;;30.00;28.00;;;;;4.54;100.00;98572.75;4847213;28;102456;-71
2023/04/21 02:54:07;;;;;;;;;32.00;29.25;;;;;4.49;100.00;98565.22;4836823;28;102496;-71
2023/04/21 02:56:34;;;;;;;;;43.00;34.50;;;;;4.45;100.00;98564.72;4841900;28;102165;-71
2023/04/21 02:59:01;;;;;;;;;38.25;34.00;;;;;4.42;100.00;98565.00;4830267;28;103919;-71
2023/04/21 03:01:28;;;;;;;;;37.75;31.25;;;;;4.47;100.00;98568.03;4843211;28;102723;-71
2023/04/21 03:03:55;;;;;;;;;37.75;30.00;;;;;4.38;100.00;98552.97;4836562;28;102569;-71
2023/04/21 03:06:22;;;;;;;;;47.00;37.00;;;;;4.36;100.00;98568.38;4844335;28;102310;-71
2023/04/21 03:08:50;;;;;;;;;49.33;40.00;;;;;4.28;100.00;98565.63;4837779;28;104191;-71
2023/04/21 03:11:17;;;;;;;;;46.75;37.00;;;;;4.27;100.00;98571.16;4845636;28;102366;-72
2023/04/21 03:13:44;;;;;;;;;47.33;38.00;;;;;4.28;100.00;98572.81;4841068;28;102293;-72
2023/04/21 03:16:12;;;;;;;;;38.67;37.00;;;;;4.25;100.00;98570.47;4845048;28;102542;-72
2023/04/21 03:18:39;;;;;;;;;34.75;32.75;;;;;4.27;100.00;98563.97;4840786;28;104125;-73
2023/04/21 03:21:06;;;;;;;;;45.50;39.25;;;;;4.12;100.00;98568.25;4842132;28;102271;-72
2023/04/21 03:23:34;;;;;;;;;42.67;38.00;;;;;4.03;100.00;98564.72;4840490;28;101970;-72
2023/04/21 03:26:05;;;;;;;;;48.67;38.33;;;;;3.89;100.00;98551.94;4843893;28;102224;-72
2023/04/21 03:28:33;;;;;;;;;37.00;30.50;;;;;4.02;100.00;98567.53;4844150;28;103972;-72
2023/04/21 03:31:00;;;;;;;;;35.00;28.50;;;;;4.02;100.00;98567.53;4841172;28;102082;-71
2023/04/21 03:33:27;;;;;;;;;30.25;30.00;;;;;3.97;100.00;98564.50;4838113;28;102248;-71
2023/04/21 03:35:53;;;;;;;;;43.50;37.00;;;;;3.94;100.00;98564.84;4844354;28;102238;-72
2023/04/21 03:38:20;;;;;;;;;43.00;36.33;;;;;3.84;100.00;98564.13;4840491;28;104067;-72
2023/04/21 03:40:47;;;;;;;;;41.33;37.33;;;;;3.82;100.00;98572.31;4838471;28;102125;-71
2023/04/21 03:43:14;;;;;;;;;41.00;37.33;;;;;3.87;100.00;98574.50;4839520;28;101970;-72
2023/04/21 03:45:41;;;;;;;;;38.50;34.25;;;;;3.91;100.00;98573.19;4842402;28;103322;-73
2023/04/21 03:48:08;;;;;;;;;30.25;28.50;;;;;3.99;100.00;98578.56;4845192;28;104052;-73
2023/04/21 03:50:37;;;;;;;;;21.75;19.00;;;;;3.93;100.00;98555.13;4843323;28;102726;-70
2023/04/21 03:53:04;;;;;;;;;26.25;24.25;;;;;4.17;100.00;98587.34;4845577;28;102052;-71
2023/04/21 03:55:31;;;;;;;;;28.50;20.50;;;;;4.23;100.00;98585.88;4845098;28;102441;-71
2023/04/21 03:57:58;;;;;;;;;17.50;13.75;;;;;4.32;100.00;98591.06;4843934;28;104021;-71
2023/04/21 04:00:25;;;;;;;;;15.00;12.50;;;;;4.37;100.00;98593.25;4837649;28;102425;-72
2023/04/21 04:02:52;;;;;;;;;11.75;8.25;;;;;4.37;100.00;98585.22;4841183;28;102350;-72
2023/04/21 04:05:19;;;;;;;;;11.50;10.00;;;;;4.38;100.00;98590.44;4844187;28;102456;-72
2023/04/21 04:07:46;;;;;;;;;11.75;9.25;;;;;4.42;100.00;98586.44;4842407;28;104063;-71
2023/04/21 04:10:13;;;;;;;;;12.00;11.00;;;;;4.37;100.00;98594.09;4840135;28;102212;-71
2023/04/21 04:12:40;;;;;;;;;21.50;17.50;;;;;4.33;100.00;98598.09;4843079;28;103227;-71
2023/04/21 04:15:07;;;;;;;;;28.00;25.00;;;;;4.30;100.00;98603.78;4846174;28;102103;-71
2023/04/21 04:17:34;;;;;;;;;21.50;17.00;;;;;4.33;100.00;98602.63;4844467;28;104055;-71
2023/04/21 04:20:03;;;;;;;;;22.50;19.25;;;;;4.36;100.00;98600.47;4837691;28;102273;-72
2023/04/21 04:22:30;;;;;;;;;20.75;17.75;;;;;4.40;100.00;98604.50;4834932;28;102150;-71
2023/04/21 04:24:58;;;;;;;;;22.75;21.50;;;;;4.45;100.00;98607.53;4845884;28;102413;-72
2023/04/21 04:27:27;;;;;;;;;24.75;23.00;;;;;4.52;100.00;98610.38;4843398;28;104130;-71
2023/04/21 04:29:54;;;;;;;;;23.75;18.75;;;;;4.65;100.00;98607.25;4848405;28;102471;-72
2023/04/21 04:32:20;;;;;;;;;16.00;16.00;;;;;4.77;100.00;98611.31;4838528;28;102561;-71
2023/04/21 04:34:47;;;;;;;;;20.50;18.00;;;;;4.85;100.00;98614.00;4844000;28;102099;-72
2023/04/21 04:37:15;;;;;;;;;19.75;18.75;;;;;4.89;100.00;98588.56;4850496;28;104035;-72
2023/04/21 04:39:41;;;;;;;;;17.50;17.25;;;;;5.12;100.00;98611.03;4844012;28;102413;-71
2023/04/21 04:42:08;;;;;;;;;11.00;9.25;;;;;5.21;100.00;98607.34;4848258;28;102102;-72
2023/04/21 04:44:35;;;;;;;;;15.00;11.00;;;;;5.31;100.00;98615.22;4846777;28;102463;-71
2023/04/21 04:47:03;;;;;;;;;12.75;11.25;;;;;5.28;100.00;98605.66;4852287;28;104223;-72
2023/04/21 04:49:30;;;;;;;;;18.00;14.00;;;;;5.52;100.00;98612.88;4854451;28;102591;-72
2023/04/21 04:51:58;;;;;;;;;12.25;11.50;;;;;5.65;100.00;98615.88;4847976;28;102284;-72
2023/04/21 04:54:27;;;;;;;;;15.75;13.25;;;;;5.76;99.66;98620.84;4846597;28;103030;-72
2023/04/21 04:56:56;;;;;;;;;13.75;12.75;;;;;5.92;99.16;98616.50;4856233;28;103966;-72
2023/04/21 04:59:23;;;;;;;;;14.25;13.00;;;;;6.05;98.44;98620.34;4852650;28;102652;-72
2023/04/21 05:01:51;;;;;;;;;19.25;17.75;;;;;6.17;96.56;98628.84;4846335;28;102746;-72
2023/04/21 05:04:18;;;;;;;;;12.75;12.00;;;;;6.35;96.83;98621.41;4844164;28;102177;-73
2023/04/21 05:06:46;;;;;;;;;15.50;13.75;;;;;6.51;94.71;98621.34;4847176;28;104089;-73
2023/04/21 05:09:13;;;;;;;;;21.00;17.50;;;;;6.66;93.96;98618.78;4850991;28;102152;-73
2023/04/21 05:11:40;;;;;;;;;19.25;16.00;;;;;6.98;93.91;98623.94;4851081;28;103622;-72
2023/04/21 05:14:07;;;;;;;;;22.00;20.75;;;;;7.56;89.99;98617.13;4846466;28;103029;-72
2023/04/21 05:16:33;;;;;;;;;23.75;18.00;;;;;8.21;85.77;98621.84;4850186;28;104206;-72
2023/04/21 05:19:01;;;;;;;;;23.75;21.25;;;;;8.86;84.77;98619.22;4848960;28;102900;-72
2023/04/21 05:21:28;;;;;;;;;15.75;13.25;;;;;9.41;80.82;98616.69;4836939;28;103102;-72
2023/04/21 05:23:57;;;;;;;;;29.00;24.50;;;;;9.96;80.99;98606.13;4835124;28;103556;-72
2023/04/21 05:26:26;;;;;;;;;23.25;22.00;;;;;10.40;74.57;98617.47;4840492;28;104103;-72
2023/04/21 05:28:57;;;;;;;;;26.25;24.75;;;;;10.86;74.03;98619.53;4852139;28;102136;-73
2023/04/21 05:31:24;;;;;;;;;24.75;20.00;;;;;11.13;70.32;98614.03;4848637;28;102277;-73
2023/04/21 05:33:52;;;;;;;;;27.50;23.50;;;;;11.55;68.99;98595.78;4850008;28;103212;-73
2023/04/21 05:36:19;;;;;;;;;37.75;30.75;;;;;11.77;66.44;98607.28;4833804;28;103964;-74
2023/04/21 05:38:46;;;;;;;;;39.00;31.50;;;;;11.83;66.93;98609.16;4852517;28;102241;-73
2023/04/21 05:41:13;;;;;;;;;40.25;33.25;;;;;11.97;65.43;98617.06;4847045;28;102388;-74
2023/04/21 05:43:40;;;;;;;;;38.00;30.75;;;;;12.64;64.79;98615.06;4848364;28;102145;-74
2023/04/21 05:46:10;;;;;;;;;21.75;20.50;;;;;13.05;62.13;98610.09;4846125;28;108942;-74
2023/04/21 05:48:37;;;;;;;;;35.50;30.00;;;;;13.45;65.10;98610.72;4845140;28;102435;-74
2023/04/21 05:51:12;;;;;;;;;25.75;21.75;;;;;13.72;60.64;98605.91;4847391;28;101988;-73
2023/04/21 05:53:41;;;;;;;;;42.25;29.50;;;;;13.70;59.72;98603.41;4844403;28;102111;-72
2023/04/21 05:56:08;;;;;;;;;30.50;27.50;;;;;13.69;61.65;98609.91;4846024;28;108597;-74
2023/04/21 05:58:36;;;;;;;;;28.75;27.00;;;;;14.01;57.63;98613.41;4846512;28;103216;-72
2023/04/21 06:01:05;;;;;;;;;28.75;22.75;;;;;14.28;61.35;98611.25;4851302;28;102120;-75
2023/04/21 06:03:32;;;;;;;;;34.00;26.00;;;;;14.58;57.86;98605.97;4847046;28;104243;-73
2023/04/21 06:06:02;;;;;;;;;30.75;28.00;;;;;14.95;55.23;98607.59;4836875;28;104103;-73
2023/04/21 06:08:29;;;;;;;;;27.50;25.50;;;;;14.72;53.87;98607.50;4840992;28;102186;-74
2023/04/21 06:10:56;;;;;;;;;32.25;26.00;;;;;14.70;59.08;98606.88;4846305;28;102244;-73
2023/04/21 06:13:23;;;;;;;;;24.50;23.50;;;;;15.00;55.31;98598.75;4844956;28;102232;-73
2023/04/21 06:15:51;;;;;;;;;26.50;23.25;;;;;15.38;56.36;98595.72;4838889;28;103732;-73
2023/04/21 06:18:18;;;;;;;;;23.00;23.00;;;;;14.51;56.30;98610.63;4843003;28;102028;-73
2023/04/21 06:20:52;;;;;;;;;26.50;26.50;;;;;14.17;57.60;98610.13;4849228;28;102139;-74
2023/04/21 06:23:20;;;;;;;;;22.00;19.25;;;;;14.52;57.66;98607.69;4847390;28;102171;-74
2023/04/21 06:25:58;;;;;;;;;19.50;18.25;;;;;14.93;59.30;98611.63;4845646;28;104433;-73
2023/04/21 06:28:25;;;;;;;;;20.75;17.75;;;;;15.10;54.50;98605.31;4844251;28;102068;-74
2023/04/21 06:30:52;;;;;;;;;22.50;20.50;;;;;15.71;54.50;98612.44;4850066;28;102135;-73
2023/04/21 06:33:19;;;;;;;;;21.75;18.00;;;;;15.85;53.54;98602.16;4852321;28;102024;-73
2023/04/21 06:35:46;;;;;;;;;18.00;16.75;;;;;15.90;51.63;98605.81;4849183;28;104465;-74
2023/04/21 06:38:12;;;;;;;;;15.25;15.00;;;;;15.83;52.44;98599.66;4846286;28;102123;-72
2023/04/21 06:40:39;;;;;;;;;21.50;18.50;;;;;15.58;52.82;98602.53;4843399;28;102227;-73
2023/04/21 06:43:06;;;;;;;;;21.25;20.00;;;;;15.42;52.72;98605.09;4850810;28;102086;-73
2023/04/21 06:45:33;;;;;;;;;22.25;20.00;;;;;15.72;55.32;98600.44;4843327;28;104096;-73
2023/04/21 06:48:00;;;;;;;;;18.50;16.00;;;;;16.16;51.77;98601.00;4838969;28;101845;-74
2023/04/21 06:50:27;;;;;;;;;16.75;16.25;;;;;16.70;51.85;98584.25;4839104;28;101954;-73
2023/04/21 06:52:54;;;;;;;;;19.50;17.00;;;;;16.86;48.39;98599.88;4854517;28;103599;-74
2023/04/21 06:55:21;;;;;;;;;19.75;18.25;;;;;16.44;48.55;98592.91;4842241;28;103998;-74
2023/04/21 06:57:48;;;;;;;;;18.75;17.00;;;;;16.58;48.99;98597.06;4845951;28;102623;-74
2023/04/21 07:00:15;;;;;;;;;20.75;19.25;;;;;16.61;49.27;98593.88;4841590;28;102148;-73
2023/04/21 07:02:42;;;;;;;;;17.50;16.25;;;;;16.67;51.56;98595.63;4853528;28;102546;-74
2023/04/21 07:05:09;;;;;;;;;18.25;18.25;;;;;16.23;51.03;98588.88;4843022;28;111889;-74
2023/04/21 07:07:36;;;;;;;;;19.25;17.25;;;;;16.02;53.30;98593.03;4848906;28;102364;-74
2023/04/21 07:10:03;;;;;;;;;18.50;17.75;;;;;16.44;50.42;98588.28;4843979;28;102403;-73
2023/04/21 07:12:30;;;;;;;;;17.25;16.25;;;;;16.67;51.33;98583.88;4842651;28;103322;-73
2023/04/21 07:14:57;;;;;;;;;16.50;15.25;;;;;16.69;47.76;98593.50;4850209;28;104062;-73
2023/04/21 07:17:24;;;;;;;;;13.33;12.33;;;;;16.78;47.73;98596.69;4845349;28;101999;-74
2023/04/21 07:19:51;;;;;;;;;14.00;12.33;;;;;16.75;48.32;98597.97;4838862;28;102507;-73
2023/04/21 07:22:18;;;;;;;;;14.00;13.00;;;;;16.68;50.60;98597.31;4840467;28;102241;-74
2023/04/21 07:24:45;;;;;;;;;15.33;14.00;;;;;16.65;48.22;98591.50;4847467;28;104052;-73
2023/04/21 07:27:14;;;;;;;;;14.00;14.00;;;;;16.64;51.78;98595.28;4848505;28;102000;-73
2023/04/21 07:29:41;;;;;;;;;24.00;18.25;;;;;16.13;49.89;98596.00;4845588;28;102053;-73
2023/04/21 07:32:08;;;;;;;;;14.50;13.75;;;;;16.29;50.31;98589.84;4843210;28;102245;-74
2023/04/21 07:34:35;;;;;;;;;16.25;14.25;;;;;16.20;53.66;98583.91;4850888;28;104093;-74
2023/04/21 07:37:02;;;;;;;;;18.75;18.50;;;;;16.43;51.81;98589.38;4847156;28;102395;-73
2023/04/21 07:39:29;;;;;;;;;15.33;14.00;;;;;16.58;50.76;98593.50;4844866;28;108958;-74
2023/04/21 07:41:56;;;;;;;;;13.00;12.67;;;;;16.84;49.72;98591.06;4843850;28;102388;-73
2023/04/21 07:44:23;;;;;;;;;14.50;13.00;;;;;17.17;48.31;98584.91;4841328;28;104069;-74
2023/04/21 07:46:50;;;;;;;;;16.75;14.00;;;;;17.22;49.03;98582.28;4846519;28;102222;-73
2023/04/21 07:49:17;;;;;;;;;14.50;13.00;;;;;17.42;48.75;98577.19;4847036;28;101890;-73
2023/04/21 07:51:44;;;;;;;;;18.25;17.25;;;;;16.98;48.71;98583.44;4845646;28;106627;-74
2023/04/21 07:54:11;;;;;;;;;20.25;18.00;;;;;16.70;48.62;98577.97;4840043;28;108807;-73
2023/04/21 07:56:38;;;;;;;;;17.50;17.25;;;;;16.97;46.18;98578.25;4850418;28;102362;-74
2023/04/21 07:59:05;;;;;;;;;15.33;14.00;;;;;16.92;44.27;98581.69;4847419;28;102645;-74
2023/04/21 08:01:32;;;;;;;;;17.00;15.50;;;;;16.88;50.24;98566.88;4841255;28;102238;-74
2023/04/21 08:03:59;;;;;;;;;16.25;15.00;;;;;17.05;45.38;98583.31;4844177;28;104732;-73
2023/04/21 08:06:27;;;;;;;;;13.75;13.00;;;;;17.21;45.28;98569.69;4852148;28;102581;-73
2023/04/21 08:08:54;;;;;;;;;11.75;11.50;;;;;17.42;42.37;98575.56;4851002;28;102189;-72
2023/04/21 08:11:21;;;;;;;;;14.67;13.67;;;;;17.54;45.33;98574.41;4846336;28;102250;-72
2023/04/21 08:13:49;;;;;;;;;8.67;8.00;;;;;17.72;41.95;98574.22;4842314;28;104034;-73
2023/04/21 08:16:16;;;;;;;;;20.00;17.75;;;;;17.05;42.68;98570.50;4842940;28;102557;-73
2023/04/21 08:18:43;;;;;;;;;18.00;15.50;;;;;17.38;40.28;98567.81;4852549;28;102162;-73
2023/04/21 08:21:10;;;;;;;;;22.50;20.00;;;;;17.02;41.73;98575.63;4842492;28;103496;-73
2023/04/21 08:23:37;;;;;;;;;18.75;14.00;;;;;17.23;41.31;98561.25;4845936;28;103985;-73
2023/04/21 08:26:04;;;;;;;;;17.00;14.25;;;;;17.41;42.24;98563.78;4843060;28;102235;-73
2023/04/21 08:28:31;;;;;;;;;17.00;15.75;;;;;17.58;40.85;98567.41;4851047;28;102506;-74
2023/04/21 08:31:00;;;;;;;;;16.00;14.25;;;;;17.55;40.14;98561.56;4850715;28;102468;-73
2023/04/21 08:33:27;;;;;;;;;15.25;15.25;;;;;17.48;39.26;98571.81;4846992;28;104498;-72
2023/04/21 08:35:54;;;;;;;;;12.33;12.33;;;;;17.93;41.74;98564.44;4842785;28;101864;-73
2023/04/21 08:38:27;;;;;;;;;11.00;11.00;;;;;18.35;38.82;98563.97;4850872;28;102652;-73
2023/04/21 08:40:57;;;;;;;;;15.00;14.00;;;;;18.25;37.43;98564.66;4828870;28;102504;-73
2023/04/21 08:43:25;;;;;;;;;15.33;13.33;;;;;18.29;38.75;98560.31;4847438;28;103973;-73
2023/04/21 08:45:53;;;;;;;;;18.75;17.75;;;;;18.15;38.05;98559.84;4844048;28;102106;-73
2023/04/21 08:48:25;;;;;;;;;15.75;15.50;;;;;18.27;37.73;98562.50;4847538;28;102214;-74
2023/04/21 08:50:52;;;;;;;;;18.00;16.50;;;;;18.44;36.71;98556.97;4850348;28;102148;-74
2023/04/21 08:53:20;;;;;;;;;16.33;16.00;;;;;18.10;36.63;98557.03;4823814;29;103992;-74
2023/04/21 08:55:53;;;;;;;;;18.00;18.00;;;;;18.21;38.63;98564.31;4843684;28;102307;-73
2023/04/21 08:58:36;;;;;;;;;10.67;10.00;;;;;18.14;37.81;98508.13;4843700;28;103504;-73
2023/04/21 09:01:03;;;;;;;;;16.00;15.00;;;;;17.78;35.79;98548.63;4849733;28;102590;-73
2023/04/21 09:03:30;;;;;;;;;15.67;14.67;;;;;18.13;38.62;98547.50;4845667;28;103635;-73
2023/04/21 09:06:06;;;;;;;;;14.67;14.00;;;;;18.48;36.29;98549.91;4844339;28;102115;-73
2023/04/21 09:08:38;;;;;;;;;17.67;16.67;;;;;18.73;36.22;98544.81;4843978;28;102227;-74
2023/04/21 09:11:05;;;;;;;;;14.33;14.33;;;;;18.55;34.07;98543.19;4846837;28;101967;-73
2023/04/21 09:13:35;;;;;;;;;17.00;17.00;;;;;18.64;34.85;98538.94;4851654;28;104043;-74
2023/04/21 09:16:04;;;;;;;;;16.00;15.00;;;;;18.52;37.61;98543.69;4846095;28;102246;-73
2023/04/21 09:18:38;;;;;;;;;15.67;13.00;;;;;18.46;38.96;98543.88;4843579;28;102398;-72
2023/04/21 09:21:09;;;;;;;;;13.00;13.00;;;;;18.39;36.64;98538.56;4851460;28;107761;-73
2023/04/21 09:23:48;;;;;;;;;13.33;12.33;;;;;18.40;38.48;98550.38;4853099;28;104059;-73
2023/04/21 09:26:16;;;;;;;;;13.67;12.33;;;;;18.14;35.52;98546.44;4849210;28;102487;-73
2023/04/21 09:28:45;;;;;;;;;13.00;12.33;;;;;18.33;38.01;98545.06;4845508;28;102035;-73
2023/04/21 09:31:18;;;;;;;;;16.67;15.67;;;;;18.70;34.55;98535.19;4851838;28;102221;-73
2023/04/21 09:33:45;;;;;;;;;15.67;14.67;;;;;18.58;35.94;98542.72;4847130;28;108734;-72
2023/04/21 09:36:27;;;;;;;;;16.00;15.00;;;;;18.92;34.67;98526.13;4847681;28;101965;-72
2023/04/21 09:38:54;;;;;;;;;16.00;14.00;;;;;18.99;35.65;98535.81;4846408;28;101998;-73
2023/04/21 09:41:43;;;;;;;;;15.00;15.00;;;;;18.73;35.84;98538.50;4852796;28;102146;-73
2023/04/21 09:44:09;;;;;;;;;17.00;16.00;;;;;18.61;34.95;98539.44;4850597;28;103976;-74
2023/04/21 09:46:37;;;;;;;;;15.67;13.33;;;;;18.86;38.83;98524.44;4850575;28;102183;-72
2023/04/21 09:49:05;;;;;;;;;17.00;16.67;;;;;18.68;36.54;98526.41;4844645;28;102081;-73
2023/04/21 09:51:33;;;;;;;;;14.33;13.67;;;;;18.99;34.51;98524.03;4853269;28;102039;-72
2023/04/21 09:54:14;;;;;;;;;15.00;15.00;;;;;18.83;34.46;98528.50;4850583;28;103758;-73
2023/04/21 09:56:58;;;;;;;;;14.00;13.00;;;;;19.14;34.20;98527.75;4846826;28;102040;-73
2023/04/21 09:59:29;;;;;;;;;14.00;14.00;;;;;19.27;34.74;98525.69;4845786;28;102997;-73
2023/04/21 10:01:58;;;;;;;;;10.67;10.00;;;;;19.52;32.31;98518.56;4849556;28;101967;-73
2023/04/21 10:04:27;;;;;;;;;19.67;18.00;;;;;19.41;33.74;98519.50;4854622;28;104112;-74
2023/04/21 10:06:56;;;;;;;;;18.00;15.00;;;;;19.41;32.33;98510.47;4848679;28;101977;-73
2023/04/21 10:09:26;;;;;;;;;10.00;9.67;;;;;19.80;33.35;98508.38;4843334;28;102606;-72
2023/04/21 10:11:54;;;;;;;;;16.67;14.33;;;;;19.49;31.21;98521.00;4840400;28;102212;-73
2023/04/21 10:14:21;;;;;;;;;15.67;15.33;;;;;18.98;32.51;98525.94;4849080;28;104023;-74
2023/04/21 10:16:56;;;;;;;;;14.00;13.00;;;;;18.88;32.22;98509.38;4845584;28;102775;-72
2023/04/21 10:19:27;;;;;;;;;13.00;12.33;;;;;18.32;34.36;98526.16;4848515;28;102301;-73
2023/04/21 10:21:57;;;;;;;;;15.67;14.00;;;;;18.09;36.22;98516.25;4844621;28;102342;-73
2023/04/21 10:24:28;;;;;;;;;17.33;14.33;;;;;18.49;34.02;98515.97;4846252;28;104024;-73
2023/04/21 10:26:58;;;;;;;;;17.67;17.00;;;;;18.73;32.91;98508.38;4849741;28;101944;-73
2023/04/21 10:29:33;;;;;;;;;12.67;11.67;;;;;19.17;33.00;98508.06;4844986;28;102880;-73
2023/04/21 10:32:40;;;;;;;;;15.00;15.00;;;;;19.37;32.55;98507.41;4841982;28;102111;-74
2023/04/21 10:35:09;;;;;;;;;14.67;14.00;;;;;19.40;32.79;98500.59;4850907;28;106411;-74
2023/04/21 10:37:36;;;;;;;;;18.00;15.67;;;;;19.16;35.10;98508.31;4851000;28;102158;-73
2023/04/21 10:40:08;;;;;;;;;15.67;14.33;;;;;18.89;32.49;98507.47;4848198;28;104039;-74
2023/04/21 10:42:35;;;;;;;;;9.00;9.00;;;;;18.90;32.47;98500.91;4846373;28;103436;-74
2023/04/21 10:45:07;;;;;;;;;12.00;12.00;;;;;19.11;35.34;98497.28;4848933;28;104267;-73
2023/04/21 10:47:48;;;;;;;;;16.67;16.00;;;;;18.99;31.76;98502.09;4850286;28;101954;-72
2023/04/21 10:50:26;;;;;;;;;17.00;16.00;;;;;18.94;30.65;98502.03;4845369;28;103181;-72
2023/04/21 10:52:55;;;;;;;;;15.33;14.00;;;;;18.80;32.69;98495.31;4843241;28;102433;-72
2023/04/21 10:55:26;;;;;;;;;17.33;16.00;;;;;18.65;36.38;98494.03;4850631;28;104021;-73
2023/04/21 10:57:53;;;;;;;;;15.00;13.33;;;;;18.40;33.75;98501.06;4850665;28;102412;-73
2023/04/21 11:00:23;;;;;;;;;12.67;12.67;;;;;18.28;34.02;98499.28;4848469;28;102303;-73
2023/04/21 11:02:57;;;;;;;;;10.00;10.00;;;;;17.89;33.38;98494.88;4845138;28;102033;-74
2023/04/21 11:05:39;;;;;;;;;12.00;12.00;;;;;17.71;32.82;98486.94;4848276;28;104076;-74
2023/04/21 11:08:15;;;;;;;;;14.00;12.00;;;;;17.60;33.36;98491.44;4852339;28;102185;-74
2023/04/21 11:10:42;;;;;;;;;16.00;14.67;;;;;17.51;35.82;98492.06;4844064;28;102313;-73
2023/04/21 11:13:10;;;;;;;;;12.00;11.33;;;;;17.90;36.10;98490.25;4847800;28;102294;-74
2023/04/21 11:15:37;;;;;;;;;18.00;16.67;;;;;17.80;34.04;98478.06;4846583;28;104257;-72
2023/04/21 11:18:06;;;;;;;;;18.00;15.33;;;;;17.79;34.68;98478.31;4852982;28;102395;-73
2023/04/21 11:20:33;;;;;;;;;11.00;10.33;;;;;17.19;32.52;98428.94;4844802;28;104400;-73